Terminal Aerodrome Forecast
Issued by NWS

Home | Current Version | Previous Version | Text Only | Print | Product List | Glossary On
Versions: 1 2 3 4 5 6 7 8 9 10 11 12 13 14 15 16 17 18 19 20 21
000
FTUS44 KBMX 050600 AAA
TAFTCL
TAF AMD
KTCL 050632Z 0507/0606 35010KT P6SM VCSH OVC007
      TEMPO 0507/0511 3SM RA BR OVC012
     FM051500 36010KT 4SM -FZRA BR SCT007 OVC012
     FM051800 34010KT 4SM -RA OVC007 PROB30 0518/0520 4SM -FZRA
      OVC007
     FM052000 35012KT P6SM OVC015
     FM060200 01012KT P6SM OVC050=

USA.gov is the U.S. government's official web portal to all federal, state and local government web resources and services.